Latest Coastal Weather Observations for Wyndham Airport

IDW60701

Issued at 5:03 am WST Monday 20 February 2017 (issued every 10 minutes, with the page automatically refreshed every 10 minutes)

About coastal observations | Map of coastal stations | Coastal observations for WA | Marine services | Other Formats
Station Details ID: 001006 Name: WYNDHAM AERO Lat: -15.51 Lon: 128.15 Height: 3.8 m
Data from the previous 72 hours. | See also: Recent months at Wyndham Airport
Date/Time
WST
Temp
°C
Wind Pressure Rain since
9am
mm
Weather Cloud Vis
km
Sea
Height
m
Swell
Dir  Spd
kts
Gust
kts
hPa Trend Height
m
Period
s
Dir
20/05:00am 25.9 CALM 0 0 1007.9 - 0.0 - - - - - - -
20/04:30am 25.9 CALM 0 0 1007.6 - 0.0 - - - - - - -
20/04:00am 26.6 NW 1 5 1007.3 - 0.0 - - - - - - -
20/03:30am 27.0 NW 2 4 1006.9 - 0.0 - - - - - - -
20/03:00am 27.6 W 2 5 1006.7 - 0.0 - - - - - - -
20/02:30am 28.1 W 4 6 1006.5 - 0.0 - - - - - - -
20/02:00am 28.2 W 1 4 1006.6 - 0.0 - - - - - - -
20/01:30am 28.4 NW 4 6 1006.7 - 0.0 - - - - - - -
20/01:00am 28.5 NW 4 5 1007.1 - 0.0 - - - - - - -
20/12:30am 28.3 N 4 5 1007.4 - 0.0 - - - - - - -
20/12:00am 29.0 WSW 8 9 1007.8 - 0.0 - - - - - - -
 
Date/Time
WST
Temp
°C
Wind Pressure Rain since
9am
mm
Weather Cloud Vis
km
Sea
Height
m
Swell
Dir  Spd
kts
Gust
kts
hPa Trend Height
m
Period
s
Dir
19/11:30pm 28.9 W 7 8 1007.7 - 0.0 - - - - - - -
19/11:00pm 28.5 CALM 0 0 1007.8 - 0.0 - - - - - - -
19/10:30pm 28.5 CALM 0 0 1008.4 - 0.0 - - - - - - -
19/10:00pm 28.7 CALM 0 0 1008.6 - 0.0 - - - - - - -
19/09:30pm 28.7 CALM 0 0 1008.5 - 0.0 - - - - - - -
19/09:00pm 29.2 CALM 0 0 1008.2 - 0.0 - - - - - - -
19/08:30pm 29.9 CALM 0 0 1008.0 - 0.0 - - - - - - -
19/08:00pm 29.5 CALM 0 0 1007.6 - 0.0 - - - - - - -
19/07:30pm 29.7 CALM 0 0 1007.1 - 0.0 - - - - - - -
19/07:00pm 30.7 CALM 0 0 1006.9 - 0.0 - - - - - - -
19/06:30pm 30.8 CALM 0 0 1006.5 - 0.0 - - - - - - -
19/06:00pm 31.3 CALM 0 0 1006.0 - 0.0 - - - - - - -
19/05:30pm 32.4 CALM 0 0 1005.9 - 0.0 - - - - - - -
19/05:00pm 33.4 CALM 0 0 1005.7 - 0.0 - - - - - - -
19/04:30pm 34.4 WNW 5 6 1005.3 - 0.0 - - - - - - -
19/04:00pm 33.4 NW 6 8 1005.2 - 0.0 - - - - - - -
19/03:30pm 34.6 ENE 1 3 1005.3 - 0.0 - - - - - - -
19/03:00pm 34.5 NW 3 6 1005.5 - 0.0 - - - - - - -
19/02:30pm 34.2 SE 2 5 1005.7 - 0.0 - - - - - - -
19/02:00pm 33.6 NNW 4 7 1005.8 - 0.0 - - - - - - -
19/01:30pm 33.7 NW 6 9 1006.2 - 0.0 - - - - - - -
19/01:00pm 33.3 WNW 7 11 1006.7 - 0.0 - - - - - - -
19/12:30pm 33.4 SSE 2 4 1007.0 - 0.0 - - - - - - -
19/12:00pm 32.8 NNE 3 6 1007.6 - 0.0 - - - - - - -
19/11:30am 32.4 NNW 2 6 1008.2 - 0.0 - - - - - - -
19/11:00am 31.9 NW 3 6 1008.5 - 0.0 - - - - - - -
19/10:30am 31.2 WSW 4 7 1009.1 - 0.0 - - - - - - -
19/10:00am 30.6 W 6 9 1009.5 - 0.0 - - - - - - -
19/09:30am 30.1 W 7 10 1009.3 - 0.0 - - - - - - -
19/09:00am 29.1 WSW 10 13 1009.6 - 11.8 - - - - - - -
19/08:30am 28.0 W 5 7 1009.3 - 11.8 - - - - - - -
19/08:00am 26.5 WSW 4 5 1009.4 - 11.8 - - - - - - -
19/07:30am 26.1 WSW 7 9 1009.8 - 11.8 - - - - - - -
19/07:00am 25.8 W 8 10 1008.5 - 11.8 - - - - - - -
19/06:30am 25.3 NW 2 5 1008.7 - 11.8 - - - - - - -
19/06:00am 24.6 ENE 9 13 1009.1 - 11.8 Rain - - - - - -
19/05:30am 26.2 E 15 24 1009.9 - 0.2 - - - - - - -
19/05:00am 27.2 ESE 8 11 1008.1 - 0.0 - - - - - - -
19/04:30am 27.1 E 10 13 1007.7 - 0.0 - - - - - - -
19/04:00am 26.4 E 5 6 1006.7 - 0.0 - - - - - - -
19/03:30am 26.3 CALM 0 0 1006.3 - 0.0 - - - - - - -
19/03:00am 26.3 CALM 0 0 1005.9 - 0.0 - - - - - - -
19/02:30am 26.7 CALM 0 0 1006.0 - 0.0 - - - - - - -
19/02:00am 26.3 CALM 0 0 1006.2 - 0.0 - - - - - - -
19/01:30am 26.7 CALM 0 0 1006.2 - 0.0 - - - - - - -
19/01:00am 26.9 WNW 3 5 1006.5 - 0.0 - - - - - - -
19/12:30am 26.9 SSW 6 7 1006.9 - 0.0 - - - - - - -
19/12:00am 27.2 WSW 5 7 1007.3 - 0.0 - - - - - - -
 
Date/Time
WST
Temp
°C
Wind Pressure Rain since
9am
mm
Weather Cloud Vis
km
Sea
Height
m
Swell
Dir  Spd
kts
Gust
kts
hPa Trend Height
m
Period
s
Dir
18/11:30pm 27.9 W 9 17 1007.8 - 0.0 - - - - - - -
18/11:00pm 27.5 NW 6 7 1008.1 - 0.0 - - - - - - -
18/10:30pm 28.0 SW 7 9 1008.7 - 0.0 - - - - - - -
18/10:00pm 27.6 SSW 12 18 1009.4 - 0.0 - - - - - - -
18/09:30pm 27.2 W 9 14 1008.7 - 0.0 - - - - - - -
18/09:00pm 26.6 NW 8 11 1008.5 - 0.0 - - - - - - -
18/08:30pm 26.8 SW 15 19 1008.3 - 0.0 - - - - - - -
18/08:07pm 30.7 WNW 8 23 1008.0 - 0.0 - - - - - - -
18/08:00pm 31.9 NNW 4 5 1007.4 - 0.0 - - - - - - -
18/07:30pm 32.4 NW 8 11 1007.0 - 0.0 - - - - - - -
18/07:00pm 32.1 N 6 7 1006.4 - 0.0 - - - - - - -
18/06:30pm 32.2 N 5 7 1006.4 - 0.0 - - - - - - -
18/06:00pm 32.3 N 5 6 1006.1 - 0.0 - - - - - - -
18/05:30pm 33.0 N 7 8 1005.9 - 0.0 - - - - - - -
18/05:00pm 34.7 N 4 6 1005.8 - 0.0 - - - - - - -
18/04:30pm 36.2 NW 2 6 1005.7 - 0.0 - - - - - - -
18/04:00pm 36.0 CALM 0 4 1005.8 - 0.0 - - - - - - -
18/03:30pm 36.1 WSW 3 6 1006.0 - 0.0 - - - - - - -
18/03:00pm 35.6 SSW 4 7 1006.3 - 0.0 - - - - - - -
18/02:30pm 35.5 N 1 4 1006.7 - 0.0 - - - - - - -
18/02:00pm 34.9 S 2 8 1007.1 - 0.0 - - - - - - -
18/01:30pm 34.4 SSW 3 7 1007.3 - 0.0 - - - - - - -
18/01:00pm 33.6 SW 5 8 1007.8 - 0.0 - - - - - - -
18/12:30pm 32.9 WNW 3 5 1008.1 - 0.0 - - - - - - -
18/12:00pm 31.6 WSW 5 8 1008.6 - 0.0 - - - - - - -
18/11:30am 30.5 WSW 4 7 1009.1 - 0.0 - - - - - - -
18/11:00am 29.5 WSW 5 8 1009.5 - 0.0 - - - - - - -
18/10:30am 28.7 W 6 7 1009.8 - 0.0 - - - - - - -
18/10:00am 28.0 SW 6 9 1010.2 - 0.0 - - - - - - -
18/09:30am 27.4 SW 7 9 1010.2 - 0.0 - - - - - - -
18/09:00am 27.1 WSW 6 8 1010.4 - 0.2 Recent precip. - - - - - -
18/08:30am 26.4 SE 7 9 1011.5 - 0.2 - - - - - - -
18/08:00am 25.7 ENE 7 11 1011.6 - 0.0 - - - - - - -
18/07:30am 26.4 ESE 11 16 1012.1 - 0.0 - - - - - - -
18/07:00am 27.1 ESE 11 14 1011.7 - 0.0 - - - - - - -
18/06:30am 27.0 E 8 9 1010.9 - 0.0 - - - - - - -
18/06:00am 26.5 SE 1 3 1009.4 - 0.0 - - - - - - -
18/05:30am 26.3 SW 7 9 1009.0 - 0.0 - - - - - - -
18/05:00am 26.3 CALM 0 3 1009.5 - 0.0 - - - - - - -
18/04:30am 26.6 WSW 4 5 1009.6 - 0.0 - - - - - - -
18/04:00am 27.0 NW 4 5 1009.9 - 0.0 - - - - - - -
18/03:30am 26.6 SSE 3 5 1010.0 - 0.0 - - - - - - -
18/03:00am 26.5 N 7 10 1009.4 - 0.0 - - - - - - -
18/02:30am 26.5 N 5 10 1009.4 - 0.0 - - - - - - -
18/02:00am 26.9 NNW 5 7 1009.6 - 0.0 - - - - - - -
18/01:30am 27.2 NE 9 16 1009.5 - 0.0 - - - - - - -
18/01:00am 27.8 E 6 10 1009.5 - 0.0 - - - - - - -
18/12:30am 28.3 NNE 11 18 1009.5 - 0.0 - - - - - - -
18/12:00am 29.3 ENE 9 13 1009.4 - 0.0 - - - - - - -
 
Date/Time
WST
Temp
°C
Wind Pressure Rain since
9am
mm
Weather Cloud Vis
km
Sea
Height
m
Swell
Dir  Spd
kts
Gust
kts
hPa Trend Height
m
Period
s
Dir
17/11:30pm 29.4 ENE 8 13 1009.4 - 0.0 - - - - - - -
17/11:00pm 28.8 ENE 4 6 1009.3 - 0.0 - - - - - - -
17/10:30pm 29.4 N 5 8 1008.9 - 0.0 - - - - - - -
17/10:00pm 30.5 NNW 1 4 1008.9 - 0.0 - - - - - - -
17/09:30pm 30.2 SE 5 8 1009.1 - 0.0 - - - - - - -
17/09:00pm 30.3 SE 6 9 1009.2 - 0.0 - - - - - - -
17/08:30pm 30.4 SE 1 4 1008.8 - 0.0 - - - - - - -
17/08:00pm 30.6 N 6 7 1008.1 - 0.0 - - - - - - -
17/07:30pm 30.6 N 4 6 1008.0 - 0.0 - - - - - - -
17/07:00pm 31.0 N 5 7 1007.6 - 0.0 - - - - - - -
17/06:30pm 31.4 N 4 6 1007.3 - 0.0 - - - - - - -
17/06:00pm 33.2 SSW 1 4 1007.0 - 0.0 - - - - - - -
17/05:30pm 34.3 SW 5 7 1006.8 - 0.0 - - - - - - -
17/05:00pm 35.1 SW 7 9 1006.1 - 0.0 - - - - - - -
17/04:30pm 35.7 SW 6 9 1005.7 - 0.0 - - - - - - -
17/04:00pm 36.4 W 5 8 1005.9 - 0.0 - - - - - - -
17/03:30pm 36.1 WNW 5 8 1006.3 - 0.0 - - - - - - -
17/03:00pm 35.5 WNW 5 11 1006.7 - 0.0 - - - - - - -
17/02:30pm 35.9 NW 5 8 1007.2 - 0.0 - - - - - - -
17/02:00pm 35.7 WNW 5 10 1007.6 - 0.0 - - - - - - -
17/01:30pm 35.4 NW 5 7 1007.8 - 0.0 - - - - - - -
17/01:00pm 35.2 W 5 7 1008.2 - 0.0 - - - - - - -
17/12:30pm 34.5 W 5 7 1008.6 - 0.0 - - - - - - -
17/12:00pm 34.2 WSW 5 8 1009.1 - 0.0 - - - - - - -
17/11:30am 33.3 WSW 8 10 1009.5 - 0.0 - - - - - - -
17/11:00am 32.9 W 7 10 1009.9 - 0.0 - - - - - - -
17/10:30am 32.7 W 8 11 1010.1 - 0.0 - - - - - - -
17/10:00am 31.9 W 9 13 1010.3 - 0.0 - - - - - - -
17/09:30am 31.0 W 8 11 1010.6 - 0.0 - - - - - - -
17/09:00am 30.5 W 9 12 1010.8 - 0.0 - - - - - - -
17/08:30am 29.9 W 9 13 1010.7 - 0.0 - - - - - - -
17/08:00am 28.9 WSW 7 9 1010.8 - 0.0 - - - - - - -
17/07:30am 28.5 SW 5 6 1010.6 - 0.0 - - - - - - -
17/07:00am 28.2 W 5 6 1010.1 - 0.0 - - - - - - -
17/06:30am 27.6 WNW 5 7 1009.8 - 0.0 - - - - - - -
17/06:00am 26.5 W 6 6 1009.2 - 0.0 - - - - - - -
17/05:30am 25.9 WNW 4 6 1008.9 - 0.0 - - - - - - -

Other Formats:

Comma delimited format used in spreadsheet applications
http://www.bom.gov.au/fwo/IDW60701/IDW60701.95214.axf

JavaScript Object Notation format (JSON) in row-major order
http://www.bom.gov.au/fwo/IDW60701/IDW60701.95214.json